sensor_id;sensor_type;location;lat;lon;timestamp;P1;durP1;ratioP1;P2;durP2;ratioP2
15905;SDS011;8051;50.820;4.884;2023-03-14T00:01:08;20.43;;;18.83;;
15905;SDS011;8051;50.820;4.884;2023-03-14T00:03:36;20.23;;;18.80;;
15905;SDS011;8051;50.820;4.884;2023-03-14T00:06:06;19.70;;;18.30;;
15905;SDS011;8051;50.820;4.884;2023-03-14T00:08:34;20.57;;;19.13;;
15905;SDS011;8051;50.820;4.884;2023-03-14T00:11:06;22.50;;;20.57;;
15905;SDS011;8051;50.820;4.884;2023-03-14T00:13:34;19.03;;;17.40;;
15905;SDS011;8051;50.820;4.884;2023-03-14T00:16:02;20.57;;;19.00;;
15905;SDS011;8051;50.820;4.884;2023-03-14T00:18:31;20.20;;;18.50;;
15905;SDS011;8051;50.820;4.884;2023-03-14T00:20:58;19.60;;;18.30;;
15905;SDS011;8051;50.820;4.884;2023-03-14T00:23:28;19.60;;;18.10;;
15905;SDS011;8051;50.820;4.884;2023-03-14T00:25:58;20.43;;;18.50;;
15905;SDS011;8051;50.820;4.884;2023-03-14T00:28:26;21.07;;;19.53;;
15905;SDS011;8051;50.820;4.884;2023-03-14T00:30:54;20.73;;;18.87;;
15905;SDS011;8051;50.820;4.884;2023-03-14T00:33:22;20.83;;;19.13;;
15905;SDS011;8051;50.820;4.884;2023-03-14T00:35:53;20.37;;;18.90;;
15905;SDS011;8051;50.820;4.884;2023-03-14T00:38:22;21.33;;;19.20;;
15905;SDS011;8051;50.820;4.884;2023-03-14T00:40:51;19.73;;;18.37;;
15905;SDS011;8051;50.820;4.884;2023-03-14T00:43:19;20.77;;;18.93;;
15905;SDS011;8051;50.820;4.884;2023-03-14T00:45:48;19.77;;;18.13;;
15905;SDS011;8051;50.820;4.884;2023-03-14T00:48:15;20.20;;;18.57;;
15905;SDS011;8051;50.820;4.884;2023-03-14T00:50:43;22.07;;;20.00;;
15905;SDS011;8051;50.820;4.884;2023-03-14T00:53:11;19.87;;;18.40;;
15905;SDS011;8051;50.820;4.884;2023-03-14T00:55:39;21.10;;;19.10;;
15905;SDS011;8051;50.820;4.884;2023-03-14T00:58:09;21.77;;;19.77;;
15905;SDS011;8051;50.820;4.884;2023-03-14T01:00:38;20.10;;;18.57;;
15905;SDS011;8051;50.820;4.884;2023-03-14T01:03:06;22.00;;;19.80;;
15905;SDS011;8051;50.820;4.884;2023-03-14T01:05:34;20.70;;;19.10;;
15905;SDS011;8051;50.820;4.884;2023-03-14T01:08:01;21.10;;;18.93;;
15905;SDS011;8051;50.820;4.884;2023-03-14T01:10:30;20.47;;;18.37;;
15905;SDS011;8051;50.820;4.884;2023-03-14T01:12:57;19.80;;;18.20;;
15905;SDS011;8051;50.820;4.884;2023-03-14T01:15:26;19.50;;;17.87;;
15905;SDS011;8051;50.820;4.884;2023-03-14T01:17:53;19.77;;;17.57;;
15905;SDS011;8051;50.820;4.884;2023-03-14T01:20:21;18.83;;;17.40;;
15905;SDS011;8051;50.820;4.884;2023-03-14T01:22:48;19.10;;;17.53;;
15905;SDS011;8051;50.820;4.884;2023-03-14T01:25:16;21.93;;;18.20;;
15905;SDS011;8051;50.820;4.884;2023-03-14T01:27:44;19.10;;;17.53;;
15905;SDS011;8051;50.820;4.884;2023-03-14T01:30:12;19.17;;;17.60;;
15905;SDS011;8051;50.820;4.884;2023-03-14T01:32:41;19.30;;;17.70;;
15905;SDS011;8051;50.820;4.884;2023-03-14T01:35:09;21.00;;;18.90;;
15905;SDS011;8051;50.820;4.884;2023-03-14T01:37:36;21.33;;;18.47;;
15905;SDS011;8051;50.820;4.884;2023-03-14T01:40:04;20.93;;;18.83;;
15905;SDS011;8051;50.820;4.884;2023-03-14T01:42:32;21.00;;;18.87;;
15905;SDS011;8051;50.820;4.884;2023-03-14T01:45:00;21.30;;;19.23;;
15905;SDS011;8051;50.820;4.884;2023-03-14T01:47:28;20.97;;;18.87;;
15905;SDS011;8051;50.820;4.884;2023-03-14T01:49:58;21.23;;;18.93;;
15905;SDS011;8051;50.820;4.884;2023-03-14T01:52:28;20.43;;;18.47;;
15905;SDS011;8051;50.820;4.884;2023-03-14T01:55:01;19.43;;;17.60;;
15905;SDS011;8051;50.820;4.884;2023-03-14T01:57:32;21.90;;;19.70;;
15905;SDS011;8051;50.820;4.884;2023-03-14T02:00:03;24.20;;;21.13;;
15905;SDS011;8051;50.820;4.884;2023-03-14T02:02:36;22.10;;;19.43;;
15905;SDS011;8051;50.820;4.884;2023-03-14T02:05:06;19.70;;;18.13;;
15905;SDS011;8051;50.820;4.884;2023-03-14T02:07:35;19.40;;;17.63;;
15905;SDS011;8051;50.820;4.884;2023-03-14T02:10:08;19.70;;;17.97;;
15905;SDS011;8051;50.820;4.884;2023-03-14T02:12:36;22.40;;;17.67;;
15905;SDS011;8051;50.820;4.884;2023-03-14T02:15:05;19.40;;;17.73;;
15905;SDS011;8051;50.820;4.884;2023-03-14T02:17:34;19.43;;;17.57;;
15905;SDS011;8051;50.820;4.884;2023-03-14T02:20:07;20.27;;;18.47;;
15905;SDS011;8051;50.820;4.884;2023-03-14T02:22:45;21.17;;;19.03;;
15905;SDS011;8051;50.820;4.884;2023-03-14T02:25:15;24.77;;;22.27;;
15905;SDS011;8051;50.820;4.884;2023-03-14T02:27:49;24.00;;;21.83;;
15905;SDS011;8051;50.820;4.884;2023-03-14T02:30:18;22.70;;;20.63;;
15905;SDS011;8051;50.820;4.884;2023-03-14T02:32:47;23.10;;;19.53;;
15905;SDS011;8051;50.820;4.884;2023-03-14T02:35:18;19.80;;;18.23;;
15905;SDS011;8051;50.820;4.884;2023-03-14T02:37:49;19.07;;;17.37;;
15905;SDS011;8051;50.820;4.884;2023-03-14T02:40:19;19.73;;;17.83;;
15905;SDS011;8051;50.820;4.884;2023-03-14T02:42:48;19.63;;;16.77;;
15905;SDS011;8051;50.820;4.884;2023-03-14T02:45:29;14.97;;;13.67;;
15905;SDS011;8051;50.820;4.884;2023-03-14T02:48:02;15.70;;;13.63;;
15905;SDS011;8051;50.820;4.884;2023-03-14T02:50:32;15.07;;;13.97;;
15905;SDS011;8051;50.820;4.884;2023-03-14T02:53:01;14.10;;;13.10;;
15905;SDS011;8051;50.820;4.884;2023-03-14T02:55:28;14.67;;;13.03;;
15905;SDS011;8051;50.820;4.884;2023-03-14T02:57:57;15.13;;;13.87;;
15905;SDS011;8051;50.820;4.884;2023-03-14T03:00:25;14.40;;;12.87;;
15905;SDS011;8051;50.820;4.884;2023-03-14T03:02:53;12.80;;;11.90;;
15905;SDS011;8051;50.820;4.884;2023-03-14T03:05:20;14.40;;;13.03;;
15905;SDS011;8051;50.820;4.884;2023-03-14T03:07:48;17.30;;;13.90;;
15905;SDS011;8051;50.820;4.884;2023-03-14T03:10:15;17.33;;;13.60;;
15905;SDS011;8051;50.820;4.884;2023-03-14T03:12:43;15.13;;;13.57;;
15905;SDS011;8051;50.820;4.884;2023-03-14T03:15:12;16.77;;;13.90;;
15905;SDS011;8051;50.820;4.884;2023-03-14T03:17:40;20.37;;;14.07;;
15905;SDS011;8051;50.820;4.884;2023-03-14T03:20:08;27.80;;;13.93;;
15905;SDS011;8051;50.820;4.884;2023-03-14T03:22:36;25.93;;;13.00;;
15905;SDS011;8051;50.820;4.884;2023-03-14T03:25:05;24.87;;;12.87;;
15905;SDS011;8051;50.820;4.884;2023-03-14T03:27:34;18.07;;;12.13;;
15905;SDS011;8051;50.820;4.884;2023-03-14T03:30:03;18.07;;;11.47;;
15905;SDS011;8051;50.820;4.884;2023-03-14T03:32:33;15.00;;;10.70;;
15905;SDS011;8051;50.820;4.884;2023-03-14T03:35:01;15.73;;;11.70;;
15905;SDS011;8051;50.820;4.884;2023-03-14T03:37:29;26.70;;;12.30;;
15905;SDS011;8051;50.820;4.884;2023-03-14T03:39:57;14.23;;;11.13;;
15905;SDS011;8051;50.820;4.884;2023-03-14T03:42:25;19.50;;;11.23;;
15905;SDS011;8051;50.820;4.884;2023-03-14T03:44:53;20.57;;;10.40;;
15905;SDS011;8051;50.820;4.884;2023-03-14T03:47:20;16.43;;;10.43;;
15905;SDS011;8051;50.820;4.884;2023-03-14T03:49:49;10.87;;;9.77;;
15905;SDS011;8051;50.820;4.884;2023-03-14T03:52:17;19.33;;;10.57;;
15905;SDS011;8051;50.820;4.884;2023-03-14T03:54:45;18.63;;;10.57;;
15905;SDS011;8051;50.820;4.884;2023-03-14T03:57:13;21.43;;;7.93;;
15905;SDS011;8051;50.820;4.884;2023-03-14T03:59:40;11.27;;;9.60;;
15905;SDS011;8051;50.820;4.884;2023-03-14T04:02:08;15.50;;;9.13;;
15905;SDS011;8051;50.820;4.884;2023-03-14T04:04:35;9.70;;;7.90;;
15905;SDS011;8051;50.820;4.884;2023-03-14T04:07:05;14.20;;;8.10;;
15905;SDS011;8051;50.820;4.884;2023-03-14T04:09:32;16.23;;;7.90;;
15905;SDS011;8051;50.820;4.884;2023-03-14T04:12:00;10.83;;;7.90;;
15905;SDS011;8051;50.820;4.884;2023-03-14T04:14:27;9.63;;;7.70;;
15905;SDS011;8051;50.820;4.884;2023-03-14T04:16:55;15.60;;;7.80;;
15905;SDS011;8051;50.820;4.884;2023-03-14T04:19:22;9.57;;;7.87;;
15905;SDS011;8051;50.820;4.884;2023-03-14T04:21:49;8.53;;;7.83;;
15905;SDS011;8051;50.820;4.884;2023-03-14T04:24:18;12.33;;;7.37;;
15905;SDS011;8051;50.820;4.884;2023-03-14T04:26:46;14.00;;;8.57;;
15905;SDS011;8051;50.820;4.884;2023-03-14T04:29:13;12.47;;;8.07;;
15905;SDS011;8051;50.820;4.884;2023-03-14T04:31:41;15.60;;;7.83;;
15905;SDS011;8051;50.820;4.884;2023-03-14T04:34:08;8.17;;;7.03;;
15905;SDS011;8051;50.820;4.884;2023-03-14T04:36:35;14.43;;;8.53;;
15905;SDS011;8051;50.820;4.884;2023-03-14T04:39:03;10.63;;;7.30;;
15905;SDS011;8051;50.820;4.884;2023-03-14T04:41:32;7.30;;;6.60;;
15905;SDS011;8051;50.820;4.884;2023-03-14T04:43:59;11.50;;;7.20;;
15905;SDS011;8051;50.820;4.884;2023-03-14T04:46:27;12.80;;;7.00;;
15905;SDS011;8051;50.820;4.884;2023-03-14T04:48:54;10.87;;;8.13;;
15905;SDS011;8051;50.820;4.884;2023-03-14T04:51:22;11.37;;;6.60;;
15905;SDS011;8051;50.820;4.884;2023-03-14T04:53:52;7.90;;;6.70;;
15905;SDS011;8051;50.820;4.884;2023-03-14T04:56:20;8.67;;;6.33;;
15905;SDS011;8051;50.820;4.884;2023-03-14T04:58:49;7.87;;;6.97;;
15905;SDS011;8051;50.820;4.884;2023-03-14T05:01:17;6.80;;;6.20;;
15905;SDS011;8051;50.820;4.884;2023-03-14T05:03:44;6.73;;;6.03;;
15905;SDS011;8051;50.820;4.884;2023-03-14T05:06:12;6.13;;;5.40;;
15905;SDS011;8051;50.820;4.884;2023-03-14T05:08:39;7.63;;;5.40;;
15905;SDS011;8051;50.820;4.884;2023-03-14T05:11:09;6.60;;;6.00;;
15905;SDS011;8051;50.820;4.884;2023-03-14T05:13:37;6.50;;;5.90;;
15905;SDS011;8051;50.820;4.884;2023-03-14T05:16:08;7.70;;;6.97;;
15905;SDS011;8051;50.820;4.884;2023-03-14T05:18:37;8.03;;;7.40;;
15905;SDS011;8051;50.820;4.884;2023-03-14T05:21:05;7.10;;;6.50;;
15905;SDS011;8051;50.820;4.884;2023-03-14T05:23:32;10.43;;;6.27;;
15905;SDS011;8051;50.820;4.884;2023-03-14T05:26:00;13.50;;;6.20;;
15905;SDS011;8051;50.820;4.884;2023-03-14T05:28:27;7.17;;;6.33;;
15905;SDS011;8051;50.820;4.884;2023-03-14T05:30:55;13.47;;;7.23;;
15905;SDS011;8051;50.820;4.884;2023-03-14T05:33:24;7.13;;;6.53;;
15905;SDS011;8051;50.820;4.884;2023-03-14T05:35:51;7.37;;;6.77;;
15905;SDS011;8051;50.820;4.884;2023-03-14T05:38:19;7.13;;;6.47;;
15905;SDS011;8051;50.820;4.884;2023-03-14T05:40:47;6.90;;;6.40;;
15905;SDS011;8051;50.820;4.884;2023-03-14T05:43:14;7.27;;;6.70;;
15905;SDS011;8051;50.820;4.884;2023-03-14T05:45:42;8.00;;;7.30;;
15905;SDS011;8051;50.820;4.884;2023-03-14T05:48:09;7.73;;;7.07;;
15905;SDS011;8051;50.820;4.884;2023-03-14T05:50:39;8.30;;;6.97;;
15905;SDS011;8051;50.820;4.884;2023-03-14T05:53:06;9.20;;;7.33;;
15905;SDS011;8051;50.820;4.884;2023-03-14T05:55:34;8.23;;;7.67;;
15905;SDS011;8051;50.820;4.884;2023-03-14T05:58:01;8.00;;;7.40;;
15905;SDS011;8051;50.820;4.884;2023-03-14T06:00:29;7.43;;;6.53;;
15905;SDS011;8051;50.820;4.884;2023-03-14T06:02:56;7.30;;;6.83;;
15905;SDS011;8051;50.820;4.884;2023-03-14T06:05:24;7.93;;;7.20;;
15905;SDS011;8051;50.820;4.884;2023-03-14T06:07:54;8.30;;;7.70;;
15905;SDS011;8051;50.820;4.884;2023-03-14T06:10:21;9.30;;;8.50;;
15905;SDS011;8051;50.820;4.884;2023-03-14T06:12:49;8.80;;;7.93;;
15905;SDS011;8051;50.820;4.884;2023-03-14T06:15:16;8.87;;;8.17;;
15905;SDS011;8051;50.820;4.884;2023-03-14T06:17:44;8.40;;;7.90;;
15905;SDS011;8051;50.820;4.884;2023-03-14T06:20:11;10.10;;;9.10;;
15905;SDS011;8051;50.820;4.884;2023-03-14T06:22:39;9.50;;;8.43;;
15905;SDS011;8051;50.820;4.884;2023-03-14T06:25:08;9.57;;;8.53;;
15905;SDS011;8051;50.820;4.884;2023-03-14T06:27:36;9.10;;;8.40;;
15905;SDS011;8051;50.820;4.884;2023-03-14T06:30:04;8.73;;;8.03;;
15905;SDS011;8051;50.820;4.884;2023-03-14T06:32:32;9.30;;;8.60;;
15905;SDS011;8051;50.820;4.884;2023-03-14T06:35:00;9.80;;;9.20;;
15905;SDS011;8051;50.820;4.884;2023-03-14T06:37:27;9.53;;;8.63;;
15905;SDS011;8051;50.820;4.884;2023-03-14T06:39:55;9.80;;;9.10;;
15905;SDS011;8051;50.820;4.884;2023-03-14T06:42:24;11.30;;;10.30;;
15905;SDS011;8051;50.820;4.884;2023-03-14T06:44:51;9.77;;;9.07;;
15905;SDS011;8051;50.820;4.884;2023-03-14T06:47:18;10.07;;;9.20;;
15905;SDS011;8051;50.820;4.884;2023-03-14T06:49:46;9.43;;;8.83;;
15905;SDS011;8051;50.820;4.884;2023-03-14T06:52:13;11.50;;;10.60;;
15905;SDS011;8051;50.820;4.884;2023-03-14T06:54:41;12.30;;;11.10;;
15905;SDS011;8051;50.820;4.884;2023-03-14T06:57:08;11.50;;;10.70;;
15905;SDS011;8051;50.820;4.884;2023-03-14T06:59:37;12.40;;;11.30;;
15905;SDS011;8051;50.820;4.884;2023-03-14T07:02:05;11.70;;;10.90;;
15905;SDS011;8051;50.820;4.884;2023-03-14T07:04:34;11.47;;;10.53;;
15905;SDS011;8051;50.820;4.884;2023-03-14T07:07:01;12.83;;;11.93;;
15905;SDS011;8051;50.820;4.884;2023-03-14T07:09:29;12.10;;;11.10;;
15905;SDS011;8051;50.820;4.884;2023-03-14T07:11:57;13.10;;;11.80;;
15905;SDS011;8051;50.820;4.884;2023-03-14T07:14:24;13.93;;;11.57;;
15905;SDS011;8051;50.820;4.884;2023-03-14T07:16:53;12.47;;;11.50;;
15905;SDS011;8051;50.820;4.884;2023-03-14T07:19:21;12.10;;;10.93;;
15905;SDS011;8051;50.820;4.884;2023-03-14T07:21:48;12.10;;;11.03;;
15905;SDS011;8051;50.820;4.884;2023-03-14T07:24:16;11.33;;;10.37;;
15905;SDS011;8051;50.820;4.884;2023-03-14T07:26:43;12.77;;;11.97;;
15905;SDS011;8051;50.820;4.884;2023-03-14T07:29:11;13.57;;;12.90;;
15905;SDS011;8051;50.820;4.884;2023-03-14T07:31:38;14.93;;;14.20;;
15905;SDS011;8051;50.820;4.884;2023-03-14T07:34:07;14.70;;;14.00;;
15905;SDS011;8051;50.820;4.884;2023-03-14T07:36:34;13.53;;;12.80;;
15905;SDS011;8051;50.820;4.884;2023-03-14T07:39:02;14.30;;;13.50;;
15905;SDS011;8051;50.820;4.884;2023-03-14T07:41:30;14.97;;;13.97;;
15905;SDS011;8051;50.820;4.884;2023-03-14T07:43:58;11.80;;;11.00;;
15905;SDS011;8051;50.820;4.884;2023-03-14T07:46:25;11.97;;;11.37;;
15905;SDS011;8051;50.820;4.884;2023-03-14T07:48:52;12.60;;;11.90;;
15905;SDS011;8051;50.820;4.884;2023-03-14T07:51:21;13.30;;;12.60;;
15905;SDS011;8051;50.820;4.884;2023-03-14T07:53:48;14.30;;;13.50;;
15905;SDS011;8051;50.820;4.884;2023-03-14T07:56:16;16.13;;;15.33;;
15905;SDS011;8051;50.820;4.884;2023-03-14T07:58:43;14.83;;;14.03;;
15905;SDS011;8051;50.820;4.884;2023-03-14T08:01:11;14.07;;;13.30;;
15905;SDS011;8051;50.820;4.884;2023-03-14T08:03:38;14.47;;;13.33;;
15905;SDS011;8051;50.820;4.884;2023-03-14T08:06:06;15.50;;;14.60;;
15905;SDS011;8051;50.820;4.884;2023-03-14T08:08:35;13.80;;;12.90;;
15905;SDS011;8051;50.820;4.884;2023-03-14T08:11:03;12.30;;;11.70;;
15905;SDS011;8051;50.820;4.884;2023-03-14T08:13:30;13.40;;;12.60;;
15905;SDS011;8051;50.820;4.884;2023-03-14T08:15:58;14.63;;;13.83;;
15905;SDS011;8051;50.820;4.884;2023-03-14T08:18:26;14.33;;;13.53;;
15905;SDS011;8051;50.820;4.884;2023-03-14T08:20:53;15.17;;;14.17;;
15905;SDS011;8051;50.820;4.884;2023-03-14T08:23:21;15.20;;;14.07;;
15905;SDS011;8051;50.820;4.884;2023-03-14T08:25:50;15.47;;;14.43;;
15905;SDS011;8051;50.820;4.884;2023-03-14T08:28:17;14.93;;;14.03;;
15905;SDS011;8051;50.820;4.884;2023-03-14T08:30:45;16.40;;;15.17;;
15905;SDS011;8051;50.820;4.884;2023-03-14T08:33:12;15.07;;;14.07;;
15905;SDS011;8051;50.820;4.884;2023-03-14T08:35:40;17.17;;;16.07;;
15905;SDS011;8051;50.820;4.884;2023-03-14T08:38:08;16.57;;;15.27;;
15905;SDS011;8051;50.820;4.884;2023-03-14T08:40:36;18.10;;;16.57;;
15905;SDS011;8051;50.820;4.884;2023-03-14T08:43:04;16.67;;;15.30;;
15905;SDS011;8051;50.820;4.884;2023-03-14T08:45:32;16.27;;;14.83;;
15905;SDS011;8051;50.820;4.884;2023-03-14T08:47:59;16.77;;;15.57;;
15905;SDS011;8051;50.820;4.884;2023-03-14T08:50:27;15.33;;;14.43;;
15905;SDS011;8051;50.820;4.884;2023-03-14T08:52:54;15.17;;;14.03;;
15905;SDS011;8051;50.820;4.884;2023-03-14T08:55:23;16.30;;;15.03;;
15905;SDS011;8051;50.820;4.884;2023-03-14T08:57:52;15.50;;;13.93;;
15905;SDS011;8051;50.820;4.884;2023-03-14T09:00:21;14.77;;;13.80;;
15905;SDS011;8051;50.820;4.884;2023-03-14T09:02:49;14.53;;;13.37;;
15905;SDS011;8051;50.820;4.884;2023-03-14T09:05:17;15.90;;;14.37;;
15905;SDS011;8051;50.820;4.884;2023-03-14T09:07:44;15.60;;;14.33;;
15905;SDS011;8051;50.820;4.884;2023-03-14T09:10:12;16.13;;;14.83;;
15905;SDS011;8051;50.820;4.884;2023-03-14T09:12:39;16.00;;;14.93;;
15905;SDS011;8051;50.820;4.884;2023-03-14T09:15:07;15.73;;;14.63;;
15905;SDS011;8051;50.820;4.884;2023-03-14T09:17:37;14.67;;;13.60;;
15905;SDS011;8051;50.820;4.884;2023-03-14T09:20:04;16.43;;;15.10;;
15905;SDS011;8051;50.820;4.884;2023-03-14T09:22:34;15.20;;;14.00;;
15905;SDS011;8051;50.820;4.884;2023-03-14T09:25:02;15.97;;;14.97;;
15905;SDS011;8051;50.820;4.884;2023-03-14T09:27:29;15.53;;;14.47;;
15905;SDS011;8051;50.820;4.884;2023-03-14T09:29:57;15.47;;;14.30;;
15905;SDS011;8051;50.820;4.884;2023-03-14T09:32:24;15.40;;;14.40;;
15905;SDS011;8051;50.820;4.884;2023-03-14T09:34:53;17.67;;;16.23;;
15905;SDS011;8051;50.820;4.884;2023-03-14T09:37:20;17.30;;;16.30;;
15905;SDS011;8051;50.820;4.884;2023-03-14T09:39:48;17.30;;;16.10;;
15905;SDS011;8051;50.820;4.884;2023-03-14T09:42:16;18.00;;;16.63;;
15905;SDS011;8051;50.820;4.884;2023-03-14T09:44:49;18.43;;;17.30;;
15905;SDS011;8051;50.820;4.884;2023-03-14T09:47:21;18.30;;;17.20;;
15905;SDS011;8051;50.820;4.884;2023-03-14T09:49:50;18.47;;;17.23;;
15905;SDS011;8051;50.820;4.884;2023-03-14T09:52:21;18.40;;;17.10;;
15905;SDS011;8051;50.820;4.884;2023-03-14T09:54:52;17.73;;;15.70;;
15905;SDS011;8051;50.820;4.884;2023-03-14T09:57:21;19.47;;;17.77;;
15905;SDS011;8051;50.820;4.884;2023-03-14T09:59:51;16.90;;;15.80;;
15905;SDS011;8051;50.820;4.884;2023-03-14T10:02:23;15.57;;;14.47;;
15905;SDS011;8051;50.820;4.884;2023-03-14T10:04:53;16.93;;;15.90;;
15905;SDS011;8051;50.820;4.884;2023-03-14T10:07:23;15.90;;;14.40;;
15905;SDS011;8051;50.820;4.884;2023-03-14T10:09:54;16.27;;;15.07;;
15905;SDS011;8051;50.820;4.884;2023-03-14T10:12:30;16.73;;;15.47;;
15905;SDS011;8051;50.820;4.884;2023-03-14T10:15:00;16.57;;;14.93;;
15905;SDS011;8051;50.820;4.884;2023-03-14T10:17:37;17.90;;;16.57;;
15905;SDS011;8051;50.820;4.884;2023-03-14T10:20:14;16.37;;;14.83;;
15905;SDS011;8051;50.820;4.884;2023-03-14T10:22:57;14.37;;;13.43;;
15905;SDS011;8051;50.820;4.884;2023-03-14T10:25:26;23.80;;;15.27;;
15905;SDS011;8051;50.820;4.884;2023-03-14T10:27:55;16.03;;;14.57;;
15905;SDS011;8051;50.820;4.884;2023-03-14T10:30:38;18.67;;;16.10;;
15905;SDS011;8051;50.820;4.884;2023-03-14T10:33:10;17.47;;;15.87;;
15905;SDS011;8051;50.820;4.884;2023-03-14T10:35:40;16.90;;;15.40;;
15905;SDS011;8051;50.820;4.884;2023-03-14T10:38:10;19.43;;;18.03;;
15905;SDS011;8051;50.820;4.884;2023-03-14T10:40:40;21.67;;;19.50;;
15905;SDS011;8051;50.820;4.884;2023-03-14T10:43:15;20.30;;;19.00;;
15905;SDS011;8051;50.820;4.884;2023-03-14T10:45:51;20.67;;;18.90;;
15905;SDS011;8051;50.820;4.884;2023-03-14T10:48:24;21.20;;;19.33;;
15905;SDS011;8051;50.820;4.884;2023-03-14T10:51:02;20.40;;;18.83;;
15905;SDS011;8051;50.820;4.884;2023-03-14T10:53:38;21.03;;;19.47;;
15905;SDS011;8051;50.820;4.884;2023-03-14T10:56:07;20.73;;;18.93;;
15905;SDS011;8051;50.820;4.884;2023-03-14T10:58:40;21.13;;;19.07;;
15905;SDS011;8051;50.820;4.884;2023-03-14T11:01:16;18.77;;;17.20;;
15905;SDS011;8051;50.820;4.884;2023-03-14T11:03:54;18.47;;;16.93;;
15905;SDS011;8051;50.820;4.884;2023-03-14T11:06:28;18.43;;;16.93;;
15905;SDS011;8051;50.820;4.884;2023-03-14T11:09:04;15.33;;;14.43;;
15905;SDS011;8051;50.820;4.884;2023-03-14T11:11:37;14.17;;;13.13;;
15905;SDS011;8051;50.820;4.884;2023-03-14T11:14:14;15.67;;;14.60;;
15905;SDS011;8051;50.820;4.884;2023-03-14T11:16:56;14.23;;;13.43;;
15905;SDS011;8051;50.820;4.884;2023-03-14T11:19:43;14.90;;;13.70;;
15905;SDS011;8051;50.820;4.884;2023-03-14T11:22:20;13.77;;;12.97;;
15905;SDS011;8051;50.820;4.884;2023-03-14T11:27:48;14.77;;;13.67;;
15905;SDS011;8051;50.820;4.884;2023-03-14T11:30:25;15.63;;;14.73;;
15905;SDS011;8051;50.820;4.884;2023-03-14T11:33:00;16.23;;;15.43;;
15905;SDS011;8051;50.820;4.884;2023-03-14T11:35:36;15.77;;;14.77;;
15905;SDS011;8051;50.820;4.884;2023-03-14T11:38:16;16.97;;;15.87;;
15905;SDS011;8051;50.820;4.884;2023-03-14T11:40:55;14.80;;;13.97;;
15905;SDS011;8051;50.820;4.884;2023-03-14T11:43:26;15.60;;;14.60;;
15905;SDS011;8051;50.820;4.884;2023-03-14T11:45:57;13.80;;;12.90;;
15905;SDS011;8051;50.820;4.884;2023-03-14T11:48:35;16.10;;;15.20;;
15905;SDS011;8051;50.820;4.884;2023-03-14T11:51:08;14.73;;;13.93;;
15905;SDS011;8051;50.820;4.884;2023-03-14T11:53:45;14.37;;;13.47;;
15905;SDS011;8051;50.820;4.884;2023-03-14T11:56:25;13.23;;;12.57;;
15905;SDS011;8051;50.820;4.884;2023-03-14T11:58:58;11.73;;;11.20;;
15905;SDS011;8051;50.820;4.884;2023-03-14T12:01:33;12.10;;;11.47;;
15905;SDS011;8051;50.820;4.884;2023-03-14T12:04:19;11.77;;;11.17;;
15905;SDS011;8051;50.820;4.884;2023-03-14T12:06:55;12.60;;;12.00;;
15905;SDS011;8051;50.820;4.884;2023-03-14T12:09:27;13.07;;;12.03;;
15905;SDS011;8051;50.820;4.884;2023-03-14T12:11:56;14.47;;;13.27;;
15905;SDS011;8051;50.820;4.884;2023-03-14T12:14:27;15.20;;;14.40;;
15905;SDS011;8051;50.820;4.884;2023-03-14T12:16:57;14.67;;;13.97;;
15905;SDS011;8051;50.820;4.884;2023-03-14T12:19:27;16.60;;;15.37;;
15905;SDS011;8051;50.820;4.884;2023-03-14T12:22:24;16.70;;;15.40;;
15905;SDS011;8051;50.820;4.884;2023-03-14T12:24:57;16.27;;;15.33;;
15905;SDS011;8051;50.820;4.884;2023-03-14T12:30:32;16.87;;;15.97;;
15905;SDS011;8051;50.820;4.884;2023-03-14T12:33:20;15.90;;;15.10;;
15905;SDS011;8051;50.820;4.884;2023-03-14T12:35:56;16.10;;;15.30;;
15905;SDS011;8051;50.820;4.884;2023-03-14T12:38:28;17.27;;;16.27;;
15905;SDS011;8051;50.820;4.884;2023-03-14T12:41:11;15.90;;;15.10;;
15905;SDS011;8051;50.820;4.884;2023-03-14T12:43:43;15.17;;;14.40;;
15905;SDS011;8051;50.820;4.884;2023-03-14T12:48:56;15.70;;;14.70;;
15905;SDS011;8051;50.820;4.884;2023-03-14T12:51:34;16.60;;;15.80;;
15905;SDS011;8051;50.820;4.884;2023-03-14T12:54:09;15.50;;;14.80;;
15905;SDS011;8051;50.820;4.884;2023-03-14T12:59:36;17.43;;;16.53;;
15905;SDS011;8051;50.820;4.884;2023-03-14T13:02:18;18.43;;;17.50;;
15905;SDS011;8051;50.820;4.884;2023-03-14T13:04:50;18.40;;;17.40;;
15905;SDS011;8051;50.820;4.884;2023-03-14T13:07:29;15.73;;;14.83;;
15905;SDS011;8051;50.820;4.884;2023-03-14T13:10:19;16.47;;;15.60;;
15905;SDS011;8051;50.820;4.884;2023-03-14T13:12:51;15.03;;;14.33;;
15905;SDS011;8051;50.820;4.884;2023-03-14T13:15:25;16.13;;;15.33;;
15905;SDS011;8051;50.820;4.884;2023-03-14T13:17:56;15.33;;;14.43;;
15905;SDS011;8051;50.820;4.884;2023-03-14T13:20:30;14.47;;;13.77;;
15905;SDS011;8051;50.820;4.884;2023-03-14T13:23:00;18.13;;;16.73;;
15905;SDS011;8051;50.820;4.884;2023-03-14T13:25:35;17.57;;;16.40;;
15905;SDS011;8051;50.820;4.884;2023-03-14T13:28:05;19.53;;;18.20;;
15905;SDS011;8051;50.820;4.884;2023-03-14T13:30:38;22.80;;;21.20;;
15905;SDS011;8051;50.820;4.884;2023-03-14T13:33:11;25.97;;;24.57;;
15905;SDS011;8051;50.820;4.884;2023-03-14T13:35:41;25.07;;;23.60;;
15905;SDS011;8051;50.820;4.884;2023-03-14T13:38:15;22.23;;;21.00;;
15905;SDS011;8051;50.820;4.884;2023-03-14T13:40:44;23.07;;;21.67;;
15905;SDS011;8051;50.820;4.884;2023-03-14T13:43:18;27.50;;;26.00;;
15905;SDS011;8051;50.820;4.884;2023-03-14T13:45:53;27.00;;;25.30;;
15905;SDS011;8051;50.820;4.884;2023-03-14T13:48:22;25.93;;;24.10;;
15905;SDS011;8051;50.820;4.884;2023-03-14T13:50:55;23.23;;;21.63;;
15905;SDS011;8051;50.820;4.884;2023-03-14T13:53:26;20.63;;;18.30;;
15905;SDS011;8051;50.820;4.884;2023-03-14T13:55:53;19.27;;;17.97;;
15905;SDS011;8051;50.820;4.884;2023-03-14T13:58:28;21.43;;;18.00;;
15905;SDS011;8051;50.820;4.884;2023-03-14T14:01:01;21.17;;;18.73;;
15905;SDS011;8051;50.820;4.884;2023-03-14T14:03:31;24.60;;;21.87;;
15905;SDS011;8051;50.820;4.884;2023-03-14T14:06:00;26.43;;;23.90;;
15905;SDS011;8051;50.820;4.884;2023-03-14T14:08:28;25.30;;;23.23;;
15905;SDS011;8051;50.820;4.884;2023-03-14T14:10:58;30.50;;;28.20;;
15905;SDS011;8051;50.820;4.884;2023-03-14T14:13:29;30.83;;;28.20;;
15905;SDS011;8051;50.820;4.884;2023-03-14T14:16:00;33.63;;;30.83;;
15905;SDS011;8051;50.820;4.884;2023-03-14T14:18:28;38.90;;;35.70;;
15905;SDS011;8051;50.820;4.884;2023-03-14T14:20:58;38.23;;;35.03;;
15905;SDS011;8051;50.820;4.884;2023-03-14T14:23:26;34.67;;;31.83;;
15905;SDS011;8051;50.820;4.884;2023-03-14T14:25:57;33.13;;;30.50;;
15905;SDS011;8051;50.820;4.884;2023-03-14T14:28:26;28.80;;;26.00;;
15905;SDS011;8051;50.820;4.884;2023-03-14T14:31:03;25.00;;;23.07;;
15905;SDS011;8051;50.820;4.884;2023-03-14T14:33:39;22.67;;;20.60;;
15905;SDS011;8051;50.820;4.884;2023-03-14T14:36:13;22.03;;;20.03;;
15905;SDS011;8051;50.820;4.884;2023-03-14T14:38:49;25.67;;;18.67;;
15905;SDS011;8051;50.820;4.884;2023-03-14T14:41:17;19.80;;;18.13;;
15905;SDS011;8051;50.820;4.884;2023-03-14T14:43:47;23.60;;;17.83;;
15905;SDS011;8051;50.820;4.884;2023-03-14T14:46:16;21.53;;;19.10;;
15905;SDS011;8051;50.820;4.884;2023-03-14T14:48:46;21.07;;;19.23;;
15905;SDS011;8051;50.820;4.884;2023-03-14T14:51:23;20.10;;;18.20;;
15905;SDS011;8051;50.820;4.884;2023-03-14T14:53:59;20.20;;;18.10;;
15905;SDS011;8051;50.820;4.884;2023-03-14T14:56:36;23.83;;;20.53;;
15905;SDS011;8051;50.820;4.884;2023-03-14T14:59:07;25.67;;;19.83;;
15905;SDS011;8051;50.820;4.884;2023-03-14T15:01:47;21.47;;;19.00;;
15905;SDS011;8051;50.820;4.884;2023-03-14T15:04:16;24.87;;;19.47;;
15905;SDS011;8051;50.820;4.884;2023-03-14T15:06:44;22.80;;;20.37;;